Time;durP1;ratioP1;P1;durP2;ratioP2;P2;SDS_P1;SDS_P2;PMS_P1;PMS_P2;Temp;Humidity;BMP_temperature;BMP_pressure;BME280_temperature;BME280_humidity;BME280_pressure;Samples;Min_cycle;Max_cycle;Signal;HPM_P1;HPM_P2
2020/12/29 00:02:10;;;;;;;8.07;3.80;;;;;;;;;;5072176;28;20020;-72
2020/12/29 00:04:35;;;;;;;5.15;2.90;;;;;;;;;;5068931;28;20070;-71
2020/12/29 00:07:00;;;;;;;8.25;3.03;;;;;;;;;;5069101;28;20159;-72
2020/12/29 00:09:27;;;;;;;6.38;2.80;;;;;;;;;;5078798;28;20084;-73
2020/12/29 00:11:55;;;;;;;6.53;3.17;;;;;;;;;;5073067;28;20023;-73
2020/12/29 00:14:20;;;;;;;6.03;2.70;;;;;;;;;;5077636;28;20100;-72
2020/12/29 00:16:46;;;;;;;7.30;2.63;;;;;;;;;;5085318;28;20017;-72
2020/12/29 00:19:13;;;;;;;5.43;2.45;;;;;;;;;;5069624;28;20021;-75
2020/12/29 00:21:39;;;;;;;3.80;2.20;;;;;;;;;;5064844;28;20021;-72
2020/12/29 00:24:04;;;;;;;10.07;1.98;;;;;;;;;;5061637;28;20053;-72
2020/12/29 00:26:29;;;;;;;8.43;2.60;;;;;;;;;;5067409;28;20167;-72
2020/12/29 00:28:54;;;;;;;5.72;2.33;;;;;;;;;;5071880;28;20085;-72
2020/12/29 00:31:20;;;;;;;5.63;2.72;;;;;;;;;;5076491;28;20024;-71
2020/12/29 00:33:46;;;;;;;7.15;3.08;;;;;;;;;;5074389;28;20033;-72
2020/12/29 00:36:11;;;;;;;4.88;2.80;;;;;;;;;;5069591;28;20013;-72
2020/12/29 00:38:36;;;;;;;4.78;2.45;;;;;;;;;;5069537;28;20033;-71
2020/12/29 00:41:04;;;;;;;7.60;2.88;;;;;;;;;;5068465;28;20024;-72
2020/12/29 00:43:29;;;;;;;6.82;2.65;;;;;;;;;;5055198;28;20048;-72
2020/12/29 00:45:55;;;;;;;6.93;2.92;;;;;;;;;;5051645;28;20056;-73
2020/12/29 00:48:20;;;;;;;8.05;3.75;;;;;;;;;;5049926;28;20031;-72
2020/12/29 00:50:45;;;;;;;10.95;3.90;;;;;;;;;;5055006;28;20493;-72
2020/12/29 00:53:10;;;;;;;7.70;3.78;;;;;;;;;;5058559;28;20639;-73
2020/12/29 00:55:36;;;;;;;7.82;3.83;;;;;;;;;;5050377;28;20040;-72
2020/12/29 00:58:01;;;;;;;9.85;3.35;;;;;;;;;;5057963;22;20055;-73
2020/12/29 01:00:27;;;;;;;6.50;3.60;;;;;;;;;;5057169;28;20435;-72
2020/12/29 01:02:52;;;;;;;8.60;4.15;;;;;;;;;;5054365;28;20021;-72
2020/12/29 01:05:17;;;;;;;8.73;4.43;;;;;;;;;;5050791;28;20056;-73
2020/12/29 01:07:43;;;;;;;8.98;4.25;;;;;;;;;;5049727;28;20048;-73
2020/12/29 01:10:08;;;;;;;9.60;4.43;;;;;;;;;;5047610;28;20013;-73
2020/12/29 01:12:33;;;;;;;9.07;3.90;;;;;;;;;;5054331;28;20499;-73
2020/12/29 01:14:58;;;;;;;7.75;3.97;;;;;;;;;;5053972;28;20020;-73
2020/12/29 01:17:24;;;;;;;8.20;4.13;;;;;;;;;;5050722;28;20389;-73
2020/12/29 01:19:49;;;;;;;6.90;3.63;;;;;;;;;;5046922;28;20488;-73
2020/12/29 01:22:14;;;;;;;7.38;3.17;;;;;;;;;;5051397;28;20021;-73
2020/12/29 01:24:39;;;;;;;9.98;3.38;;;;;;;;;;5051231;28;20369;-73
2020/12/29 01:27:05;;;;;;;7.47;3.28;;;;;;;;;;5050720;28;20456;-73
2020/12/29 01:29:30;;;;;;;3.85;2.63;;;;;;;;;;5051500;28;20005;-73
2020/12/29 01:31:57;;;;;;;8.15;3.50;;;;;;;;;;5050568;28;20025;-73
2020/12/29 01:34:22;;;;;;;7.65;3.03;;;;;;;;;;5051856;28;20017;-72
2020/12/29 01:36:47;;;;;;;5.63;2.80;;;;;;;;;;5050285;28;20031;-73
2020/12/29 01:39:13;;;;;;;7.30;2.85;;;;;;;;;;5050987;28;20497;-73
2020/12/29 01:41:38;;;;;;;8.85;3.42;;;;;;;;;;5050444;28;20071;-72
2020/12/29 01:44:13;;;;;;;7.22;3.28;;;;;;;;;;5050699;28;20020;-73
2020/12/29 01:46:39;;;;;;;4.68;2.50;;;;;;;;;;5050511;28;20025;-72
2020/12/29 01:49:04;;;;;;;7.28;3.15;;;;;;;;;;5049745;28;20093;-72
2020/12/29 01:51:29;;;;;;;5.13;2.65;;;;;;;;;;5051550;28;20124;-73
2020/12/29 01:53:54;;;;;;;11.75;3.08;;;;;;;;;;5049721;28;20039;-73
2020/12/29 01:56:19;;;;;;;7.35;3.15;;;;;;;;;;5051233;28;20083;-73
2020/12/29 01:58:45;;;;;;;7.93;2.97;;;;;;;;;;5050553;28;20112;-73
2020/12/29 02:01:10;;;;;;;6.38;3.05;;;;;;;;;;5050173;28;20052;-73
2020/12/29 02:03:35;;;;;;;5.63;3.10;;;;;;;;;;5048957;28;20017;-73
2020/12/29 02:06:01;;;;;;;5.38;2.80;;;;;;;;;;5050530;28;20099;-71
2020/12/29 02:08:27;;;;;;;6.68;2.90;;;;;;;;;;5050476;28;20104;-72
2020/12/29 02:10:53;;;;;;;6.60;3.10;;;;;;;;;;5049502;28;20541;-73
2020/12/29 02:13:18;;;;;;;5.60;3.17;;;;;;;;;;5049025;28;20029;-72
2020/12/29 02:15:44;;;;;;;5.30;3.05;;;;;;;;;;5050262;28;20445;-73
2020/12/29 02:18:09;;;;;;;5.20;3.00;;;;;;;;;;5049907;28;20055;-73
2020/12/29 02:20:34;;;;;;;13.13;3.47;;;;;;;;;;5050053;28;20055;-72
2020/12/29 02:22:59;;;;;;;6.15;3.42;;;;;;;;;;5049695;28;20371;-71
2020/12/29 02:25:24;;;;;;;6.28;3.47;;;;;;;;;;5049225;28;20409;-73
2020/12/29 02:27:50;;;;;;;7.63;3.70;;;;;;;;;;5048418;28;20021;-72
2020/12/29 02:30:19;;;;;;;8.40;3.95;;;;;;;;;;5050016;28;20477;-72
2020/12/29 02:32:45;;;;;;;7.95;3.65;;;;;;;;;;5050098;28;20024;-72
2020/12/29 02:35:10;;;;;;;6.13;3.40;;;;;;;;;;5050751;28;20036;-73
2020/12/29 02:37:36;;;;;;;8.35;3.53;;;;;;;;;;5048908;28;20025;-71
2020/12/29 02:40:01;;;;;;;8.68;4.47;;;;;;;;;;5050159;28;20031;-72
2020/12/29 02:42:26;;;;;;;7.22;3.25;;;;;;;;;;5049461;28;20029;-72
2020/12/29 02:44:52;;;;;;;9.18;4.10;;;;;;;;;;5049903;28;20492;-72
2020/12/29 02:47:17;;;;;;;9.55;3.85;;;;;;;;;;5049089;28;20427;-72
2020/12/29 02:49:42;;;;;;;8.20;3.28;;;;;;;;;;5048598;28;20079;-72
2020/12/29 02:52:07;;;;;;;7.57;3.75;;;;;;;;;;5049878;28;20477;-72
2020/12/29 02:54:33;;;;;;;6.75;3.85;;;;;;;;;;5050448;28;20021;-72
2020/12/29 02:56:58;;;;;;;6.68;3.35;;;;;;;;;;5048639;28;20467;-72
2020/12/29 02:59:24;;;;;;;9.27;3.33;;;;;;;;;;5049604;28;20021;-72
2020/12/29 03:01:49;;;;;;;5.30;3.25;;;;;;;;;;5047848;28;20448;-72
2020/12/29 03:04:15;;;;;;;10.23;3.28;;;;;;;;;;5049698;28;20023;-72
2020/12/29 03:06:40;;;;;;;9.38;3.75;;;;;;;;;;5049453;28;20042;-72
2020/12/29 03:09:06;;;;;;;6.65;2.90;;;;;;;;;;5049266;28;20092;-73
2020/12/29 03:11:31;;;;;;;4.45;2.80;;;;;;;;;;5047751;28;20469;-72
2020/12/29 03:14:00;;;;;;;6.00;3.17;;;;;;;;;;5049461;28;20087;-72
2020/12/29 03:16:26;;;;;;;4.63;2.80;;;;;;;;;;5050729;28;20086;-72
2020/12/29 03:18:51;;;;;;;6.65;2.97;;;;;;;;;;5048969;28;20477;-72
2020/12/29 03:21:17;;;;;;;7.15;3.63;;;;;;;;;;5047280;28;20050;-73
2020/12/29 03:23:42;;;;;;;12.15;3.65;;;;;;;;;;5047390;28;20020;-72
2020/12/29 03:26:07;;;;;;;6.07;3.40;;;;;;;;;;5047626;28;20017;-73
2020/12/29 03:28:33;;;;;;;7.68;3.13;;;;;;;;;;5047738;28;20025;-72
2020/12/29 03:30:58;;;;;;;5.55;2.97;;;;;;;;;;5047113;28;20025;-72
2020/12/29 03:33:23;;;;;;;4.57;2.75;;;;;;;;;;5046044;28;20074;-72
2020/12/29 03:35:48;;;;;;;7.10;3.50;;;;;;;;;;5046762;28;20025;-73
2020/12/29 03:38:14;;;;;;;8.00;2.92;;;;;;;;;;5046530;28;20048;-71
2020/12/29 03:40:39;;;;;;;10.25;3.60;;;;;;;;;;5046819;28;20371;-72
2020/12/29 03:43:04;;;;;;;5.80;3.15;;;;;;;;;;5046094;28;20028;-71
2020/12/29 03:45:29;;;;;;;7.78;3.67;;;;;;;;;;5046411;28;20032;-72
2020/12/29 03:47:55;;;;;;;7.72;3.50;;;;;;;;;;5052123;28;20017;-73
2020/12/29 03:50:20;;;;;;;7.32;3.30;;;;;;;;;;5048527;28;20028;-72
2020/12/29 03:52:46;;;;;;;8.48;3.47;;;;;;;;;;5041662;28;20075;-72
2020/12/29 03:55:11;;;;;;;8.80;3.13;;;;;;;;;;5049350;28;20016;-72
2020/12/29 03:57:37;;;;;;;8.07;3.25;;;;;;;;;;5048411;28;20551;-72
2020/12/29 04:00:05;;;;;;;5.93;2.70;;;;;;;;;;5049055;28;20043;-72
2020/12/29 04:02:30;;;;;;;8.57;3.50;;;;;;;;;;5047769;28;20021;-72
2020/12/29 04:04:56;;;;;;;5.40;2.80;;;;;;;;;;5048329;28;20070;-72
2020/12/29 04:07:21;;;;;;;6.87;3.27;;;;;;;;;;5049281;28;20024;-72
2020/12/29 04:09:46;;;;;;;6.65;3.42;;;;;;;;;;5048753;28;20355;-73
2020/12/29 04:12:11;;;;;;;5.10;3.08;;;;;;;;;;5048597;28;20021;-73
2020/12/29 04:14:36;;;;;;;9.75;3.05;;;;;;;;;;5051378;28;20060;-72
2020/12/29 04:17:01;;;;;;;7.80;3.58;;;;;;;;;;5052011;28;20048;-72
2020/12/29 04:19:27;;;;;;;7.05;3.35;;;;;;;;;;5051002;28;20465;-74
2020/12/29 04:21:52;;;;;;;7.40;3.15;;;;;;;;;;5052713;28;20017;-72
2020/12/29 04:24:17;;;;;;;6.35;3.53;;;;;;;;;;5053615;28;20507;-73
2020/12/29 04:26:43;;;;;;;8.88;3.83;;;;;;;;;;5052444;28;20021;-73
2020/12/29 04:29:08;;;;;;;13.98;3.10;;;;;;;;;;5052301;28;20025;-72
2020/12/29 04:31:34;;;;;;;6.65;2.80;;;;;;;;;;5051781;28;20021;-73
2020/12/29 04:33:59;;;;;;;6.30;3.33;;;;;;;;;;5047933;28;20067;-72
2020/12/29 04:36:25;;;;;;;6.43;3.10;;;;;;;;;;5049868;28;20021;-72
2020/12/29 04:38:50;;;;;;;5.43;3.05;;;;;;;;;;5049921;28;20021;-72
2020/12/29 04:41:15;;;;;;;7.63;2.80;;;;;;;;;;5049951;28;20450;-72
2020/12/29 04:43:41;;;;;;;5.55;2.90;;;;;;;;;;5050297;28;20024;-73
2020/12/29 04:46:06;;;;;;;8.60;3.70;;;;;;;;;;5045340;28;20028;-72
2020/12/29 04:48:31;;;;;;;6.05;3.35;;;;;;;;;;5047631;28;20072;-73
2020/12/29 04:51:01;;;;;;;5.40;2.85;;;;;;;;;;5049910;28;20021;-71
2020/12/29 04:53:29;;;;;;;6.50;3.63;;;;;;;;;;5052379;28;20358;-72
2020/12/29 04:55:57;;;;;;;6.15;3.17;;;;;;;;;;5051989;28;20691;-73
2020/12/29 04:58:23;;;;;;;7.43;3.22;;;;;;;;;;5051136;28;20025;-73
2020/12/29 05:00:48;;;;;;;6.07;3.17;;;;;;;;;;5052182;28;20017;-73
2020/12/29 05:03:13;;;;;;;9.35;3.97;;;;;;;;;;5047736;28;20082;-72
2020/12/29 05:05:38;;;;;;;6.43;3.17;;;;;;;;;;5052224;28;20021;-73
2020/12/29 05:08:04;;;;;;;17.05;4.03;;;;;;;;;;5050499;28;20021;-73
2020/12/29 05:10:29;;;;;;;5.75;3.33;;;;;;;;;;5051318;28;20078;-72
2020/12/29 05:12:55;;;;;;;6.43;3.80;;;;;;;;;;5051986;28;20017;-73
2020/12/29 05:15:21;;;;;;;6.38;3.45;;;;;;;;;;5051652;28;20362;-72
2020/12/29 05:17:46;;;;;;;11.93;3.53;;;;;;;;;;5050717;28;20044;-71
2020/12/29 05:20:11;;;;;;;6.97;3.20;;;;;;;;;;5051440;28;20043;-72
2020/12/29 05:22:37;;;;;;;6.35;3.58;;;;;;;;;;5051544;28;20078;-72
2020/12/29 05:25:03;;;;;;;8.27;3.45;;;;;;;;;;5050019;28;20009;-72
2020/12/29 05:27:29;;;;;;;10.68;3.88;;;;;;;;;;5051317;28;20028;-72
2020/12/29 05:29:55;;;;;;;7.30;3.92;;;;;;;;;;5050579;28;20028;-73
2020/12/29 05:32:23;;;;;;;11.40;5.63;;;;;;;;;;5050806;28;20032;-72
2020/12/29 05:34:48;;;;;;;13.90;5.60;;;;;;;;;;5048401;28;20024;-72
2020/12/29 05:37:14;;;;;;;38.80;19.38;;;;;;;;;;5043343;28;20318;-72
2020/12/29 05:39:39;;;;;;;27.58;14.27;;;;;;;;;;5051610;28;20056;-72
2020/12/29 05:42:04;;;;;;;21.80;11.90;;;;;;;;;;5050879;28;20025;-70
2020/12/29 05:44:30;;;;;;;19.00;9.45;;;;;;;;;;5050144;28;20016;-73
2020/12/29 05:46:56;;;;;;;14.60;8.20;;;;;;;;;;5048065;28;20485;-72
2020/12/29 05:49:22;;;;;;;10.98;7.13;;;;;;;;;;5050762;28;20079;-72
2020/12/29 05:51:49;;;;;;;9.98;4.47;;;;;;;;;;5051298;28;20020;-72
2020/12/29 05:54:14;;;;;;;7.78;2.67;;;;;;;;;;5050134;28;20029;-72
2020/12/29 05:56:40;;;;;;;5.20;2.95;;;;;;;;;;5051284;28;20028;-72
2020/12/29 05:59:06;;;;;;;9.43;3.35;;;;;;;;;;5050263;28;20083;-72
2020/12/29 06:01:38;;;;;;;6.95;3.10;;;;;;;;;;5048793;28;20159;-72
2020/12/29 06:04:04;;;;;;;6.90;2.90;;;;;;;;;;5046798;28;20025;-71
2020/12/29 06:06:31;;;;;;;6.18;2.95;;;;;;;;;;5049866;28;20082;-72
2020/12/29 06:09:00;;;;;;;9.65;3.65;;;;;;;;;;5050151;28;20029;-72
2020/12/29 06:11:35;;;;;;;7.70;3.42;;;;;;;;;;5050473;28;20040;-72
2020/12/29 06:14:00;;;;;;;10.32;3.65;;;;;;;;;;5046239;28;20021;-72
2020/12/29 06:16:31;;;;;;;8.23;3.42;;;;;;;;;;5047408;28;20405;-72
2020/12/29 06:18:58;;;;;;;8.65;3.75;;;;;;;;;;5050247;28;20465;-72
2020/12/29 06:21:27;;;;;;;7.35;3.70;;;;;;;;;;5050265;28;20044;-72
2020/12/29 06:23:54;;;;;;;7.18;3.38;;;;;;;;;;5050522;28;20016;-72
2020/12/29 06:26:20;;;;;;;6.28;3.42;;;;;;;;;;5050266;28;20079;-71
2020/12/29 06:28:53;;;;;;;7.93;3.67;;;;;;;;;;5049466;28;20041;-72
2020/12/29 06:31:26;;;;;;;12.75;4.00;;;;;;;;;;5050347;28;20099;-72
2020/12/29 06:33:53;;;;;;;6.75;3.50;;;;;;;;;;5050159;28;20083;-72
2020/12/29 06:36:18;;;;;;;8.52;3.90;;;;;;;;;;5050187;28;20075;-71
2020/12/29 06:38:45;;;;;;;11.27;3.90;;;;;;;;;;5050158;28;20034;-72
2020/12/29 06:41:11;;;;;;;8.00;3.53;;;;;;;;;;5050308;28;20452;-71
2020/12/29 06:43:36;;;;;;;9.07;4.55;;;;;;;;;;5049007;28;20023;-72
2020/12/29 06:46:14;;;;;;;7.13;4.30;;;;;;;;;;5049911;28;20024;-72
2020/12/29 06:48:41;;;;;;;8.85;4.70;;;;;;;;;;5049430;28;20043;-71
2020/12/29 06:51:09;;;;;;;7.13;4.05;;;;;;;;;;5049717;28;20450;-72
2020/12/29 06:53:34;;;;;;;14.95;5.13;;;;;;;;;;5050131;28;20023;-72
2020/12/29 06:56:00;;;;;;;15.38;5.15;;;;;;;;;;5040532;28;20453;-71
2020/12/29 06:58:32;;;;;;;9.95;4.97;;;;;;;;;;5049469;28;20460;-71
2020/12/29 07:01:16;;;;;;;10.88;5.03;;;;;;;;;;5048815;28;20071;-71
2020/12/29 07:03:41;;;;;;;8.82;4.53;;;;;;;;;;5048855;28;20028;-71
2020/12/29 07:06:06;;;;;;;10.32;4.45;;;;;;;;;;5048580;28;20017;-71
2020/12/29 07:08:38;;;;;;;11.95;5.03;;;;;;;;;;5046262;28;20027;-71
2020/12/29 07:11:18;;;;;;;8.70;4.35;;;;;;;;;;5047166;28;20020;-71
2020/12/29 07:13:49;;;;;;;10.20;4.72;;;;;;;;;;5057005;28;20025;-71
2020/12/29 07:16:20;;;;;;;13.32;5.68;;;;;;;;;;5048097;28;20013;-71
2020/12/29 07:18:45;;;;;;;9.48;5.75;;;;;;;;;;5049360;28;20094;-71
2020/12/29 07:21:27;;;;;;;16.42;6.53;;;;;;;;;;5049436;28;20466;-71
2020/12/29 07:23:53;;;;;;;13.65;6.40;;;;;;;;;;5046114;28;20021;-70
2020/12/29 07:26:18;;;;;;;14.05;6.15;;;;;;;;;;5049494;28;20032;-71
2020/12/29 07:28:44;;;;;;;15.15;6.13;;;;;;;;;;5046537;28;20029;-71
2020/12/29 07:31:11;;;;;;;13.65;5.55;;;;;;;;;;5047392;28;20017;-71
2020/12/29 07:33:43;;;;;;;13.38;5.78;;;;;;;;;;5049676;28;20021;-71
2020/12/29 07:36:09;;;;;;;11.85;5.72;;;;;;;;;;5049523;28;20036;-71
2020/12/29 07:38:36;;;;;;;17.50;6.03;;;;;;;;;;5047615;28;20078;-71
2020/12/29 07:41:02;;;;;;;15.00;7.15;;;;;;;;;;5048266;28;20029;-71
2020/12/29 07:43:27;;;;;;;15.75;6.60;;;;;;;;;;5048999;28;20033;-71
2020/12/29 07:45:52;;;;;;;9.90;5.43;;;;;;;;;;5048744;28;20025;-71
2020/12/29 07:48:17;;;;;;;11.40;5.97;;;;;;;;;;5048291;28;20465;-71
2020/12/29 07:50:42;;;;;;;15.70;7.20;;;;;;;;;;5053404;28;20462;-71
2020/12/29 07:53:09;;;;;;;10.27;5.57;;;;;;;;;;5052955;28;20040;-71
2020/12/29 07:55:34;;;;;;;11.93;5.82;;;;;;;;;;5054168;28;20481;-71
2020/12/29 07:58:00;;;;;;;13.05;6.25;;;;;;;;;;5052282;28;20033;-71
2020/12/29 08:00:25;;;;;;;12.73;6.82;;;;;;;;;;5052916;28;20033;-71
2020/12/29 08:02:51;;;;;;;12.02;5.90;;;;;;;;;;5050656;28;20431;-71
2020/12/29 08:05:23;;;;;;;15.70;7.60;;;;;;;;;;5053228;28;20032;-70
2020/12/29 08:08:02;;;;;;;17.52;7.13;;;;;;;;;;5052638;28;20029;-71
2020/12/29 08:10:29;;;;;;;18.48;7.78;;;;;;;;;;5047898;28;20032;-71
2020/12/29 08:12:55;;;;;;;22.30;8.20;;;;;;;;;;5053374;28;20047;-72
2020/12/29 08:15:27;;;;;;;12.38;6.43;;;;;;;;;;5052184;28;20028;-71
2020/12/29 08:18:02;;;;;;;13.82;7.68;;;;;;;;;;5050554;28;20051;-71
2020/12/29 08:20:27;;;;;;;13.80;6.80;;;;;;;;;;5050245;28;20030;-71
2020/12/29 08:22:52;;;;;;;20.02;7.78;;;;;;;;;;5053640;28;20052;-71
2020/12/29 08:25:18;;;;;;;19.67;8.88;;;;;;;;;;5052026;28;20024;-71
2020/12/29 08:27:43;;;;;;;14.85;5.22;;;;;;;;;;5052962;28;20059;-71
2020/12/29 08:30:09;;;;;;;27.60;8.10;;;;;;;;;;5053035;28;20025;-70
2020/12/29 08:32:34;;;;;;;23.77;8.38;;;;;;;;;;5052468;28;20551;-71
2020/12/29 08:35:00;;;;;;;15.90;7.30;;;;;;;;;;5053261;28;20477;-70
2020/12/29 08:37:30;;;;;;;14.32;7.80;;;;;;;;;;5051899;28;20078;-71
2020/12/29 08:40:11;;;;;;;18.13;6.57;;;;;;;;;;5052821;28;20496;-71
2020/12/29 08:42:40;;;;;;;11.05;5.55;;;;;;;;;;5050949;28;20037;-72
2020/12/29 08:45:06;;;;;;;13.80;5.70;;;;;;;;;;5052459;28;20017;-70
2020/12/29 08:47:32;;;;;;;11.52;5.85;;;;;;;;;;5052117;28;20017;-71
2020/12/29 08:49:57;;;;;;;16.05;7.38;;;;;;;;;;5052521;28;20067;-71
2020/12/29 08:52:30;;;;;;;10.90;5.45;;;;;;;;;;5052806;28;20078;-70
2020/12/29 08:54:55;;;;;;;13.73;5.68;;;;;;;;;;5052280;28;20574;-70
2020/12/29 08:57:25;;;;;;;15.18;5.68;;;;;;;;;;5039900;28;20078;-70
2020/12/29 08:59:51;;;;;;;14.32;5.78;;;;;;;;;;5052597;28;20096;-71
2020/12/29 09:02:26;;;;;;;11.95;5.68;;;;;;;;;;5044855;28;20033;-71
2020/12/29 09:04:57;;;;;;;13.25;4.00;;;;;;;;;;5051955;28;20267;-72
2020/12/29 09:07:23;;;;;;;15.73;6.55;;;;;;;;;;5050161;28;20021;-72
2020/12/29 09:09:50;;;;;;;13.45;5.25;;;;;;;;;;5051671;28;20119;-71
2020/12/29 09:12:20;;;;;;;12.57;6.40;;;;;;;;;;5052278;28;20040;-73
2020/12/29 09:14:53;;;;;;;13.85;6.05;;;;;;;;;;5052017;28;20025;-72
2020/12/29 09:17:18;;;;;;;13.18;6.40;;;;;;;;;;5051436;28;20025;-71
2020/12/29 09:20:03;;;;;;;15.98;5.63;;;;;;;;;;5052146;28;20116;-71
2020/12/29 09:22:28;;;;;;;19.15;6.40;;;;;;;;;;5050184;28;20035;-72
2020/12/29 09:24:53;;;;;;;3.10;1.77;;;;;;;;;;5051614;28;20021;-71
2020/12/29 09:27:31;;;;;;;7.45;3.47;;;;;;;;;;5051015;28;20051;-72
2020/12/29 09:29:57;;;;;;;20.80;6.78;;;;;;;;;;5048216;28;20021;-71
2020/12/29 09:32:23;;;;;;;14.95;5.70;;;;;;;;;;5047922;28;20024;-71
2020/12/29 09:34:49;;;;;;;12.02;5.28;;;;;;;;;;5049361;28;20385;-72
2020/12/29 09:37:14;;;;;;;25.48;7.43;;;;;;;;;;5048825;28;20021;-71
2020/12/29 09:39:40;;;;;;;16.00;7.55;;;;;;;;;;5049732;28;20025;-72
2020/12/29 09:42:05;;;;;;;17.55;7.82;;;;;;;;;;5049909;28;20603;-71
2020/12/29 09:44:30;;;;;;;15.65;6.82;;;;;;;;;;5049086;28;20028;-72
2020/12/29 09:46:55;;;;;;;22.10;8.95;;;;;;;;;;5048715;28;20021;-72
2020/12/29 09:49:20;;;;;;;15.93;7.45;;;;;;;;;;5049542;28;20021;-72
2020/12/29 09:51:51;;;;;;;21.25;7.70;;;;;;;;;;5049635;28;20113;-71
2020/12/29 09:54:16;;;;;;;;;;;;;;;;;;5050000;28;20052;-72
2020/12/29 09:56:41;;;;;;;30.77;7.15;;;;;;;;;;5050022;28;20472;-72
2020/12/29 09:59:06;;;;;;;16.00;7.13;;;;;;;;;;5049054;28;20311;-72
2020/12/29 10:01:31;;;;;;;17.40;6.82;;;;;;;;;;5048109;28;20553;-70
2020/12/29 10:03:57;;;;;;;21.42;7.43;;;;;;;;;;5047477;28;20100;-72
2020/12/29 10:06:22;;;;;;;14.20;5.93;;;;;;;;;;5047683;28;20531;-72
2020/12/29 10:08:47;;;;;;;16.58;7.38;;;;;;;;;;5057312;28;20052;-72
2020/12/29 10:11:12;;;;;;;18.35;6.88;;;;;;;;;;5045317;28;20103;-72
2020/12/29 10:13:37;;;;;;;13.27;6.45;;;;;;;;;;5048467;28;20024;-72
2020/12/29 10:16:02;;;;;;;14.85;6.93;;;;;;;;;;5048398;28;20099;-72
2020/12/29 10:18:28;;;;;;;6.72;3.75;;;;;;;;;;5048413;28;20024;-73
2020/12/29 10:20:54;;;;;;;22.65;8.63;;;;;;;;;;5049132;28;20017;-72
2020/12/29 10:23:19;;;;;;;26.77;7.78;;;;;;;;;;5047490;28;20108;-72
2020/12/29 10:25:44;;;;;;;20.95;7.95;;;;;;;;;;5046764;28;20021;-72
2020/12/29 10:28:09;;;;;;;27.90;9.88;;;;;;;;;;5046670;28;20012;-72
2020/12/29 10:30:34;;;;;;;25.85;8.13;;;;;;;;;;5055938;28;20020;-71
2020/12/29 10:32:59;;;;;;;19.33;7.88;;;;;;;;;;5050194;28;20039;-72
2020/12/29 10:35:25;;;;;;;22.27;8.25;;;;;;;;;;5060099;28;20377;-72
2020/12/29 10:37:50;;;;;;;18.90;7.50;;;;;;;;;;5049675;28;20060;-72
2020/12/29 10:40:15;;;;;;;19.35;8.55;;;;;;;;;;5049551;28;20021;-72
2020/12/29 10:42:40;;;;;;;23.77;7.80;;;;;;;;;;5049842;28;20508;-73
2020/12/29 10:45:05;;;;;;;30.38;9.57;;;;;;;;;;5049574;28;20330;-71
2020/12/29 10:47:31;;;;;;;18.20;6.63;;;;;;;;;;5048899;28;20021;-73
2020/12/29 10:49:56;;;;;;;10.23;4.28;;;;;;;;;;5049482;28;20032;-71
2020/12/29 10:52:21;;;;;;;16.53;7.50;;;;;;;;;;5049760;28;20029;-72
2020/12/29 10:54:46;;;;;;;17.25;6.60;;;;;;;;;;5049619;28;20274;-72
2020/12/29 10:57:11;;;;;;;13.67;6.67;;;;;;;;;;5049464;28;20020;-71
2020/12/29 10:59:36;;;;;;;17.95;7.97;;;;;;;;;;5050563;28;20346;-72
2020/12/29 11:02:03;;;;;;;17.55;9.40;;;;;;;;;;5050331;28;20039;-72
2020/12/29 11:04:28;;;;;;;20.25;8.00;;;;;;;;;;5049629;28;20032;-72
2020/12/29 11:06:53;;;;;;;16.15;7.78;;;;;;;;;;5048255;28;20477;-71
2020/12/29 11:09:18;;;;;;;25.95;8.90;;;;;;;;;;5049333;28;20056;-73
2020/12/29 11:11:43;;;;;;;20.05;8.10;;;;;;;;;;5050296;28;20028;-72
2020/12/29 11:14:09;;;;;;;22.38;8.52;;;;;;;;;;5048581;28;20057;-73
2020/12/29 11:16:34;;;;;;;20.45;9.88;;;;;;;;;;5049790;28;20505;-72
2020/12/29 11:18:59;;;;;;;24.45;10.10;;;;;;;;;;5048739;28;20104;-73
2020/12/29 11:21:24;;;;;;;18.77;8.73;;;;;;;;;;5047662;28;20535;-73
2020/12/29 11:23:50;;;;;;;14.90;7.97;;;;;;;;;;5048966;28;20458;-71
2020/12/29 11:26:20;;;;;;;27.98;9.85;;;;;;;;;;5048587;28;20517;-71
2020/12/29 11:28:45;;;;;;;15.35;5.93;;;;;;;;;;5048583;28;20028;-72
2020/12/29 11:31:13;;;;;;;17.38;8.35;;;;;;;;;;5044167;28;20027;-72
2020/12/29 11:33:39;;;;;;;18.92;8.93;;;;;;;;;;5050846;28;20021;-72
2020/12/29 11:36:04;;;;;;;12.55;7.25;;;;;;;;;;5051870;28;20093;-73
2020/12/29 11:38:29;;;;;;;15.32;7.78;;;;;;;;;;5048848;28;20013;-72
2020/12/29 11:40:54;;;;;;;16.58;7.72;;;;;;;;;;5048515;28;20489;-72
2020/12/29 11:43:19;;;;;;;24.95;12.25;;;;;;;;;;5049238;28;20465;-72
2020/12/29 11:45:44;;;;;;;16.00;8.20;;;;;;;;;;5048722;28;20040;-73
2020/12/29 11:48:10;;;;;;;20.80;8.60;;;;;;;;;;5048305;28;20158;-72
2020/12/29 11:50:35;;;;;;;20.05;9.57;;;;;;;;;;5049170;28;20384;-73
2020/12/29 11:53:00;;;;;;;11.70;5.25;;;;;;;;;;5049166;28;20028;-73
2020/12/29 11:55:25;;;;;;;21.58;10.55;;;;;;;;;;5048877;28;20024;-73
2020/12/29 11:57:51;;;;;;;16.98;8.85;;;;;;;;;;5049120;28;20040;-72
2020/12/29 12:00:17;;;;;;;15.55;7.63;;;;;;;;;;5046728;28;20503;-73
2020/12/29 12:02:42;;;;;;;19.65;7.95;;;;;;;;;;5049890;28;20032;-72
2020/12/29 12:05:07;;;;;;;16.10;7.22;;;;;;;;;;5048627;28;20017;-72
2020/12/29 12:07:32;;;;;;;16.80;9.10;;;;;;;;;;5048362;28;20103;-72
2020/12/29 12:09:58;;;;;;;18.83;8.65;;;;;;;;;;5048794;28;20099;-72
2020/12/29 12:12:23;;;;;;;21.60;9.13;;;;;;;;;;5048707;28;20143;-72
2020/12/29 12:14:48;;;;;;;17.83;9.27;;;;;;;;;;5048135;28;20385;-72
2020/12/29 12:17:13;;;;;;;18.38;9.55;;;;;;;;;;5047890;28;20036;-73
2020/12/29 12:19:38;;;;;;;8.90;5.07;;;;;;;;;;5048629;28;20569;-73
2020/12/29 12:22:03;;;;;;;23.35;9.18;;;;;;;;;;5046593;28;20634;-73
2020/12/29 12:24:29;;;;;;;13.35;7.38;;;;;;;;;;5047632;28;20041;-73
2020/12/29 12:26:54;;;;;;;18.90;7.50;;;;;;;;;;5048004;28;20017;-71
2020/12/29 12:29:19;;;;;;;19.67;8.60;;;;;;;;;;5048809;28;20256;-73
2020/12/29 12:31:44;;;;;;;18.73;7.07;;;;;;;;;;5048884;28;20071;-71
2020/12/29 12:34:10;;;;;;;13.57;5.68;;;;;;;;;;5049128;28;20280;-71
2020/12/29 12:36:35;;;;;;;14.77;6.80;;;;;;;;;;5052167;28;20112;-71
2020/12/29 12:39:00;;;;;;;19.10;7.85;;;;;;;;;;5052178;28;20024;-71
2020/12/29 12:41:25;;;;;;;24.15;8.05;;;;;;;;;;5052457;28;20155;-71
2020/12/29 12:43:50;;;;;;;19.13;6.35;;;;;;;;;;5051326;28;20025;-72
2020/12/29 12:46:16;;;;;;;14.05;6.53;;;;;;;;;;5049679;28;20036;-73
2020/12/29 12:48:41;;;;;;;15.57;5.80;;;;;;;;;;5050711;28;20009;-71
2020/12/29 12:51:06;;;;;;;14.57;6.53;;;;;;;;;;5044732;28;20016;-71
2020/12/29 12:53:32;;;;;;;12.15;5.00;;;;;;;;;;5050163;28;20025;-71
2020/12/29 12:55:57;;;;;;;14.95;6.05;;;;;;;;;;5051964;28;20025;-72
2020/12/29 12:58:28;;;;;;;16.73;7.05;;;;;;;;;;5117168;22;20184;-72
2020/12/29 13:00:56;;;;;;;7.57;3.58;;;;;;;;;;5051875;28;20028;-72
2020/12/29 13:03:26;;;;;;;12.13;5.25;;;;;;;;;;5045803;28;20112;-72
2020/12/29 13:05:52;;;;;;;7.10;3.85;;;;;;;;;;5054330;28;20480;-72
2020/12/29 13:08:25;;;;;;;12.52;5.32;;;;;;;;;;5050201;28;20017;-72
2020/12/29 13:10:50;;;;;;;10.35;4.57;;;;;;;;;;5045491;28;20070;-73
2020/12/29 13:13:16;;;;;;;9.73;4.22;;;;;;;;;;5050550;28;20431;-71
2020/12/29 13:15:41;;;;;;;11.95;5.57;;;;;;;;;;5050049;28;20025;-71
2020/12/29 13:18:07;;;;;;;19.08;5.13;;;;;;;;;;5050393;28;20051;-72
2020/12/29 13:20:33;;;;;;;16.73;4.95;;;;;;;;;;5051514;28;20025;-72
2020/12/29 13:22:58;;;;;;;20.75;5.43;;;;;;;;;;5046150;28;20021;-73
2020/12/29 13:25:24;;;;;;;14.15;5.30;;;;;;;;;;5047893;28;20028;-70
2020/12/29 13:27:49;;;;;;;9.48;5.35;;;;;;;;;;5048954;28;20381;-71
2020/12/29 13:30:14;;;;;;;6.95;3.22;;;;;;;;;;5049705;28;20056;-71
2020/12/29 13:32:39;;;;;;;10.63;3.60;;;;;;;;;;5051064;28;20025;-71
2020/12/29 13:35:05;;;;;;;9.75;5.25;;;;;;;;;;5051418;28;20067;-71
2020/12/29 13:37:31;;;;;;;8.65;4.13;;;;;;;;;;5049007;28;20381;-71
2020/12/29 13:39:56;;;;;;;9.07;4.07;;;;;;;;;;5049284;28;20025;-71
2020/12/29 13:42:21;;;;;;;16.00;5.35;;;;;;;;;;5047849;28;20510;-72
2020/12/29 13:44:46;;;;;;;13.83;4.57;;;;;;;;;;5049665;28;20067;-72
2020/12/29 13:47:12;;;;;;;9.48;4.07;;;;;;;;;;5050235;28;20278;-71
2020/12/29 13:49:37;;;;;;;15.00;5.93;;;;;;;;;;5048479;28;20051;-71
2020/12/29 13:52:02;;;;;;;17.45;5.68;;;;;;;;;;5048420;28;20040;-71
2020/12/29 13:54:28;;;;;;;14.23;5.05;;;;;;;;;;5048221;28;20040;-71
2020/12/29 13:56:56;;;;;;;10.20;3.70;;;;;;;;;;5050586;28;20114;-70
2020/12/29 13:59:22;;;;;;;15.23;5.28;;;;;;;;;;5049860;28;20321;-70
2020/12/29 14:01:48;;;;;;;9.20;4.82;;;;;;;;;;5050372;28;20033;-70
2020/12/29 14:04:13;;;;;;;13.85;6.22;;;;;;;;;;5049991;28;20021;-70
2020/12/29 14:06:38;;;;;;;11.40;4.77;;;;;;;;;;5049968;28;20016;-71
2020/12/29 14:09:03;;;;;;;11.25;5.22;;;;;;;;;;5048362;28;20910;-71
2020/12/29 14:11:29;;;;;;;12.30;4.90;;;;;;;;;;5049322;28;20025;-71
2020/12/29 14:13:54;;;;;;;9.27;4.40;;;;;;;;;;5050381;28;20071;-71
2020/12/29 14:16:22;;;;;;;14.63;4.87;;;;;;;;;;5050940;28;20355;-71
2020/12/29 14:18:47;;;;;;;12.55;5.32;;;;;;;;;;5050207;28;20251;-71
2020/12/29 14:21:12;;;;;;;9.83;4.43;;;;;;;;;;5050541;28;20066;-71
2020/12/29 14:23:37;;;;;;;9.37;4.70;;;;;;;;;;5050274;28;20770;-71
2020/12/29 14:26:03;;;;;;;15.00;4.10;;;;;;;;;;5050253;28;20267;-71
2020/12/29 14:28:28;;;;;;;10.30;4.15;;;;;;;;;;5050911;28;20263;-71
2020/12/29 14:30:53;;;;;;;18.03;6.57;;;;;;;;;;5051156;28;20052;-71